Data for 09/15/2009

Time Sea-Level Adjusted Pressure Absolute Pressure Temperature Relative Humidity Dew Point   
(mb) (inHg) (mb) (inHg) (C) (F) (%) (C) (F)
00:05 1020 30.12 849 25.07 17.9 64.1 45 5.8 42.4
00:10 1020 30.12 849 25.07 18 64.5 45 6 42.8
00:15 1020 30.12 849 25.07 18.2 64.7 44 6 42.7
00:20 1020 30.12 849 25.07 18.4 65 44 6.1 43
00:25 1020 30.12 849 25.07 18.4 65.1 43 5.8 42.4
00:30 1020 30.12 849 25.07 18.6 65.4 45 6.6 43.9
00:35 1020 30.12 849 25.07 17.9 64.2 49 7.3 45.1
00:40 1020 30.12 849 25.07 17.3 63.2 49 6.7 44
00:45 1020 30.12 849 25.07 17.4 63.4 48 6.5 43.8
00:50 1020 30.12 849 25.07 17.2 62.9 55 8 46.5
00:55 1020 30.12 849 25.07 16.1 61 59 8.2 46.7
01:00 1020 30.12 849 25.07 15.4 59.7 59 7.6 45.6
01:05 1020 30.12 849 25.07 15.7 60.2 57 7.4 45.3
01:10 1020 30.12 849 25.07 15.8 60.5 58 7.6 45.6
01:15 1020 30.12 849 25.07 15.2 59.4 65 8.8 47.8
01:20 1020 30.12 849 25.07 14.7 58.4 67 8.7 47.6
01:25 1020 30.12 849 25.07 14.7 58.4 67 8.8 47.8
01:30 1020 30.12 849 25.07 14.8 58.6 68 9 48.2
01:35 1020 30.12 849 25.07 15.2 59.3 63 8.1 46.6
01:40 1020 30.12 849 25.07 14.4 57.8 65 7.9 46.3
01:45 1020 30.12 849 25.07 14.1 57.5 64 7.6 45.7
01:50 1020 30.12 849 25.07 14.4 57.9 62 7.3 45.1
01:55 1020 30.12 849 25.07 14.5 58 63 7.5 45.5
02:00 1020 30.12 849 25.07 14.5 58.1 61 7.2 44.9
02:05 1020 30.12 849 25.07 14.7 58.4 61 7.3 45.1
02:10 1020 30.12 849 25.07 14.5 58.2 64 7.8 46.1
02:15 1020 30.12 849 25.07 14.1 57.3 66 7.9 46.1
02:20 1020 30.12 849 25.07 13.9 57 64 7.3 45.1
02:25 1020 30.12 849 25.07 14.3 57.8 65 8 46.4
02:30 1020 30.12 849 25.07 14.1 57.3 66 7.9 46.3
02:35 1020 30.12 849 25.07 14.1 57.5 65 7.7 45.8
02:40 1020 30.12 850 25.1 14.4 58 64 7.7 45.8
02:45 1020 30.12 850 25.1 14.5 58.1 62 7.4 45.3
02:50 1020 30.12 850 25.1 14.8 58.6 61 7.4 45.3
02:55 1020 30.12 850 25.1 14.8 58.7 63 7.8 46.1
03:00 1020 30.12 850 25.1 14.5 58 64 7.9 46.2
03:05 1021 30.15 850 25.1 14.3 57.8 65 7.9 46.2
03:10 1021 30.15 850 25.1 14.3 57.7 64 7.7 45.9
03:15 1021 30.15 850 25.1 14.4 58 62 7.4 45.2
03:20 1021 30.15 850 25.1 14.6 58.3 63 7.7 45.9
03:25 1021 30.15 850 25.1 14.6 58.2 62 7.4 45.3
03:30 1021 30.15 850 25.1 14.8 58.7 62 7.8 46
03:35 1021 30.15 850 25.1 14.6 58.3 65 8.3 46.9
03:40 1021 30.15 850 25.1 13.9 57.1 69 8.5 47.2
03:45 1021 30.15 850 25.1 13.4 56.1 68 7.6 45.6
03:50 1021 30.15 850 25.1 13.7 56.7 66 7.6 45.6
03:55 1021 30.15 850 25.1 13.9 57 63 7 44.7
04:00 1021 30.15 850 25.1 14.4 57.8 61 7.1 44.7
04:05 1021 30.15 850 25.1 14.4 57.9 62 7.3 45.2
04:10 1021 30.15 850 25.1 14.1 57.4 63 7.1 44.9
04:15 1021 30.15 851 25.13 14 57.2 63 7.1 44.7
04:20 1021 30.15 851 25.13 14.1 57.4 61 6.9 44.4
04:25 1021 30.15 851 25.13 14.3 57.7 61 6.9 44.4
04:30 1021 30.15 851 25.13 14.2 57.6 61 7 44.5
04:35 1021 30.15 851 25.13 14.3 57.7 60 6.8 44.3
04:40 1022 30.18 851 25.13 14.7 58.4 60 6.9 44.5
04:45 1022 30.18 851 25.13 14.8 58.6 60 7.2 45
04:50 1022 30.18 851 25.13 14.6 58.2 62 7.4 45.3
04:55 1022 30.18 851 25.13 14.3 57.8 64 7.6 45.7
05:00 1022 30.18 851 25.13 14.1 57.3 64 7.5 45.5
05:05 1022 30.18 851 25.13 14.3 57.7 61 7 44.6
05:10 1022 30.18 851 25.13 14.5 58.2 60 7 44.6
05:15 1022 30.18 851 25.13 14.7 58.5 60 7.1 44.8
05:20 1022 30.18 851 25.13 14.7 58.5 59 7 44.5
05:25 1022 30.18 851 25.13 14.9 58.9 58 6.7 44.1
05:30 1022 30.18 851 25.13 15 58.9 60 7.4 45.3
05:35 1022 30.18 851 25.13 14.4 58 63 7.4 45.4
05:40 1022 30.18 851 25.13 14.1 57.4 63 7.1 44.8
05:45 1022 30.18 851 25.13 14.2 57.6 62 7.2 45
05:50 1022 30.18 851 25.13 14.3 57.7 62 7.2 44.9
05:55 1022 30.18 851 25.13 14.2 57.6 63 7.5 45.5
06:00 1022 30.18 851 25.13 14 57.2 65 7.6 45.8
06:05 1022 30.18 852 25.16 13.9 56.9 65 7.4 45.4
06:10 1022 30.18 852 25.16 13.8 56.8 65 7.4 45.3
06:15 1022 30.18 852 25.16 13.8 56.9 63 7 44.6
06:20 1022 30.18 852 25.16 14.1 57.3 62 7 44.7
06:25 1022 30.18 852 25.16 14.4 57.9 61 7 44.6
06:30 1022 30.18 852 25.16 14.6 58.3 60 7.1 44.7
06:35 1023 30.21 852 25.16 14.5 58.1 64 7.8 46
06:40 1023 30.21 852 25.16 14.1 57.4 62 7.1 44.7
06:45 1023 30.21 852 25.16 14.2 57.5 64 7.6 45.6
06:50 1023 30.21 852 25.16 13.8 56.9 65 7.4 45.4
06:55 1023 30.21 852 25.16 13.7 56.7 65 7.2 45
07:00 1023 30.21 852 25.16 13.8 56.9 63 7 44.6
07:05 1023 30.21 852 25.16 14.1 57.3 62 7 44.6
07:10 1023 30.21 852 25.16 14.2 57.5 64 7.5 45.6
07:15 1023 30.21 852 25.16 13.7 56.6 65 7.2 45
07:20 1023 30.21 852 25.16 13.6 56.5 65 7.3 45.1
07:25 1023 30.21 852 25.16 13.5 56.3 66 7.4 45.2
07:30 1023 30.21 852 25.16 13.5 56.2 65 7.1 44.9
07:35 1023 30.21 852 25.16 13.5 56.3 66 7.3 45.1
07:40 1023 30.21 853 25.19 13.4 56 66 7.2 45
07:45 1023 30.21 853 25.19 13.6 56.4 64 7 44.6
07:50 1023 30.21 853 25.19 13.9 57 64 7.3 45.1
07:55 1023 30.21 853 25.19 13.9 56.9 65 7.5 45.5
08:00 1023 30.21 853 25.19 13.8 56.9 64 7.2 44.9
08:05 1024 30.24 853 25.19 14.1 57.3 64 7.3 45.2
08:10 1023 30.21 853 25.19 14.4 57.8 62 7.4 45.2
08:15 1024 30.24 853 25.19 14.6 58.3 62 7.4 45.2
08:20 1024 30.24 853 25.19 14.5 58.1 62 7.3 45.2
08:25 1024 30.24 853 25.19 15.1 59.2 60 7.3 45.2
08:30 1024 30.24 853 25.19 16 60.9 57 7.6 45.6
08:35 1024 30.24 853 25.19 16.1 60.9 57 7.7 45.9
08:40 1024 30.24 853 25.19 16.2 61.1 56 7.5 45.5
08:45 1024 30.24 853 25.19 16.4 61.4 55 7.5 45.4
08:50 1024 30.24 853 25.19 16.5 61.8 54 7.4 45.3
08:55 1024 30.24 853 25.19 16.9 62.3 54 7.5 45.6
09:00 1024 30.24 853 25.19 17.5 63.6 52 7.7 45.8
09:05 1024 30.24 853 25.19 18 64.4 51 7.8 46
09:10 1024 30.24 853 25.19 18.7 65.6 49 7.9 46.2
09:15 1024 30.24 853 25.19 19.3 66.8 48 8.2 46.7
09:20 1024 30.24 853 25.19 20.2 68.3 45 8 46.5
09:25 1024 30.24 853 25.19 20.4 68.7 43 7.7 45.9
09:30 1024 30.24 853 25.19 20.7 69.3 43 7.7 45.9
09:35 1024 30.24 853 25.19 20.4 68.7 43 7.5 45.5
09:40 1024 30.24 853 25.19 19.8 67.7 44 7.4 45.3
09:45 1024 30.24 854 25.22 18.9 66.1 46 7.2 44.9
09:50 1024 30.24 854 25.22 19.4 67 45 7.2 45
09:55 1024 30.24 854 25.22 19.5 67.1 45 7.3 45.2
10:00 1024 30.24 854 25.22 20.3 68.6 42 7.3 45.1
10:05 1024 30.24 854 25.22 19.9 67.9 45 7.8 46
10:10 1024 30.24 854 25.22 19.8 67.7 44 7.2 45
10:15 1024 30.24 854 25.22 20.1 68.1 43 7.4 45.3
10:20 1024 30.24 854 25.22 20.3 68.5 42 7.1 44.7
10:25 1024 30.24 854 25.22 20.1 68.2 42 6.9 44.5
10:30 1025 30.27 854 25.22 20.8 69.5 40 6.9 44.5
10:35 1025 30.27 854 25.22 20.6 69 43 7.5 45.6
10:40 1024 30.24 854 25.22 20 68 42 6.8 44.2
10:45 1025 30.27 854 25.22 20.4 68.7 40 6.6 44
10:50 1025 30.27 854 25.22 20.6 69 39 6.3 43.4
10:55 1025 30.27 854 25.22 21.7 71 36 6.2 43.2
11:00 1025 30.27 854 25.22 22.7 72.8 35 6.6 43.8
11:05 1025 30.27 854 25.22 22.2 72 36 6.5 43.7
11:10 1025 30.27 854 25.22 21.1 70 38 6.5 43.7
11:15 1025 30.27 854 25.22 21.5 70.7 37 6.5 43.6
11:20 1025 30.27 854 25.22 21.3 70.4 38 6.7 44.1
11:25 1024 30.24 854 25.22 22.2 72 33 5.2 41.4
11:30 1024 30.24 854 25.22 22.7 72.9 33 6 42.8
11:35 1024 30.24 854 25.22 22.8 73.1 34 6.3 43.4
11:40 1024 30.24 854 25.22 22.7 72.8 33 5.9 42.6
11:45 1024 30.24 854 25.22 23.5 74.4 32 6.2 43.2
11:50 1024 30.24 854 25.22 23.8 74.8 31 5.9 42.6
11:55 1024 30.24 854 25.22 23.7 74.6 31 6 42.7
12:00 1024 30.24 854 25.22 23.6 74.4 33 6.7 44
12:05 1024 30.24 854 25.22 23.4 74.1 33 6.5 43.8
12:10 1024 30.24 854 25.22 23 73.5 33 6.3 43.3
12:15 1024 30.24 854 25.22 23.3 74 33 6.4 43.5
12:20 1024 30.24 854 25.22 23.8 74.8 31 6.1 42.9
12:25 1024 30.24 854 25.22 23 73.4 34 6.6 43.9
12:30 1024 30.24 853 25.19 23 73.5 33 6.1 43
12:35 1024 30.24 853 25.19 24.2 75.6 31 6.2 43.2
12:40 1024 30.24 853 25.19 23.4 74.1 32 6.1 43
12:45 1024 30.24 853 25.19 23.7 74.7 32 6.3 43.4
12:50 1024 30.24 853 25.19 23.7 74.7 31 5.8 42.4
12:55 1024 30.24 853 25.19 24.1 75.4 32 6.7 44.1
13:00 1024 30.24 853 25.19 23.5 74.3 33 6.3 43.4
13:05 1024 30.24 853 25.19 23.6 74.5 32 6 42.8
13:10 1024 30.24 853 25.19 23.9 75.1 31 6.2 43.1
13:15 1024 30.24 853 25.19 23.7 74.6 32 6.2 43.1
13:20 1024 30.24 853 25.19 24 75.1 32 6.5 43.8
13:25 1024 30.24 853 25.19 24.3 75.7 31 6.3 43.4
13:30 1024 30.24 853 25.19 25.4 77.7 29 6.4 43.6
13:35 1024 30.24 853 25.19 25.7 78.3 30 6.9 44.4
13:40 1024 30.24 853 25.19 25.7 78.2 30 6.9 44.4
13:45 1024 30.24 853 25.19 25.6 78.1 29 6.4 43.6
13:50 1024 30.24 853 25.19 25.8 78.4 27 5.6 42.1
13:55 1024 30.24 853 25.19 26 78.8 27 5.9 42.6
14:00 1024 30.24 853 25.19 25.6 78.1 25 4.2 39.6
14:05 1024 30.24 853 25.19 26 78.9 24 4.4 40
14:10 1024 30.24 853 25.19 25.7 78.2 25 4.3 39.7
14:15 1023 30.21 853 25.19 25.4 77.8 25 4 39.2
14:20 1023 30.21 853 25.19 25.2 77.4 25 4 39.3
14:25 1023 30.21 853 25.19 25.4 77.7 25 4.2 39.6
14:30 1023 30.21 853 25.19 25.4 77.8 25 4.4 40
14:35 1023 30.21 853 25.19 25.7 78.3 25 4.4 39.9
14:40 1023 30.21 853 25.19 26 78.7 24 4.2 39.6
14:45 1023 30.21 853 25.19 25.9 78.5 24 4.3 39.7
14:50 1023 30.21 853 25.19 25.8 78.4 24 4.1 39.3
14:55 1023 30.21 853 25.19 26.1 79 24 4.2 39.6
15:00 1023 30.21 853 25.19 26.1 79 24 4.3 39.7
15:05 1023 30.21 853 25.19 25.8 78.4 24 4.1 39.4
15:10 1023 30.21 853 25.19 25.6 78 24 3.7 38.7
15:15 1023 30.21 852 25.16 25.8 78.4 23 3.6 38.5
15:20 1023 30.21 852 25.16 26.1 78.9 23 3.4 38.1
15:25 1023 30.21 852 25.16 26.1 79 22 3.2 37.7
15:30 1023 30.21 853 25.19 26.3 79.3 22 3.2 37.7
15:35 1023 30.21 853 25.19 26.3 79.3 22 2.9 37.3
15:40 1023 30.21 853 25.19 26.3 79.3 21 2.2 36
15:45 1023 30.21 853 25.19 26.4 79.6 20 2.1 35.8
15:50 1023 30.21 852 25.16 26.7 80.1 20 2.3 36.2
15:55 1023 30.21 853 25.19 26.7 80 21 2.7 36.9
16:00 1023 30.21 853 25.19 26.8 80.3 21 2.9 37.3
16:05 1023 30.21 853 25.19 26.7 80.1 20 2.5 36.5
16:10 1023 30.21 853 25.19 26.7 80 21 3.1 37.6
16:15 1023 30.21 852 25.16 26.4 79.5 22 3 37.4
16:20 1023 30.21 852 25.16 26.4 79.4 22 3.2 37.8
16:25 1023 30.21 852 25.16 26.2 79.1 22 3 37.4
16:30 1023 30.21 852 25.16 26.1 79 22 2.8 37.1
16:35 1023 30.21 853 25.19 26.2 79.1 22 3.1 37.6
16:40 1023 30.21 853 25.19 26.3 79.3 22 3.3 37.9
16:45 1023 30.21 853 25.19 26.2 79.1 22 3.3 38
16:50 1023 30.21 853 25.19 26.5 79.6 22 3.4 38.1
16:55 1023 30.21 853 25.19 26.3 79.4 22 3.5 38.3
17:00 1023 30.21 853 25.19 26.4 79.6 22 3.5 38.2
17:05 1023 30.21 853 25.19 26.2 79.1 23 3.4 38.1
17:10 1023 30.21 853 25.19 26.2 79.1 23 3.5 38.2
17:15 1023 30.21 853 25.19 26.2 79.2 23 3.6 38.5
17:20 1023 30.21 853 25.19 26.2 79.2 23 3.6 38.5
17:25 1023 30.21 853 25.19 26.1 79 23 3.8 38.8
17:30 1023 30.21 853 25.19 26.1 78.9 23 3.9 39
17:35 1024 30.24 853 25.19 26.2 79.2 23 4 39.2
17:40 1024 30.24 853 25.19 26.1 79.1 23 3.8 38.9
17:45 1024 30.24 853 25.19 26 78.8 23 3.5 38.2
17:50 1024 30.24 853 25.19 26 78.7 23 3.7 38.6
17:55 1024 30.24 853 25.19 25.9 78.6 24 3.9 39
18:00 1024 30.24 853 25.19 25.9 78.6 24 3.8 38.9
18:05 1024 30.24 853 25.19 25.9 78.6 24 4 39.1
18:10 1024 30.24 853 25.19 25.8 78.5 23 3.7 38.6
18:15 1024 30.24 853 25.19 25.8 78.5 24 3.9 39.1
18:20 1024 30.24 853 25.19 25.8 78.4 24 3.8 38.9
18:25 1024 30.24 853 25.19 25.6 78 24 4 39.2
18:30 1024 30.24 853 25.19 25.5 77.8 25 4 39.2
18:35 1024 30.24 853 25.19 25.4 77.7 25 4.1 39.3
18:40 1024 30.24 853 25.19 25.3 77.5 25 4 39.2
18:45 1024 30.24 853 25.19 25.2 77.4 25 3.9 39
18:50 1024 30.24 853 25.19 25.2 77.3 25 4 39.2
18:55 1024 30.24 853 25.19 25.1 77.2 25 4.1 39.4
19:00 1024 30.24 853 25.19 25 77 25 4 39.2
19:05 1024 30.24 853 25.19 24.9 76.7 26 4.1 39.4
19:10 1024 30.24 853 25.19 24.7 76.4 26 4.3 39.7
19:15 1024 30.24 853 25.19 24.4 76 27 4.3 39.7
19:20 1024 30.24 853 25.19 24.4 75.8 27 4.2 39.5
19:25 1024 30.24 853 25.19 24.3 75.7 27 4.4 40
19:30 1024 30.24 853 25.19 24.1 75.3 28 4.5 40.1
19:35 1024 30.24 854 25.22 24 75.3 28 4.4 39.9
19:40 1024 30.24 854 25.22 24 75.2 28 4.5 40.1
19:45 1024 30.24 854 25.22 23.9 74.9 28 4.5 40.1
19:50 1024 30.24 854 25.22 23.8 74.8 28 4.3 39.7
19:55 1025 30.27 854 25.22 23.7 74.7 28 4.5 40.1
20:00 1025 30.27 854 25.22 23.5 74.4 28 4.4 39.9
20:05 1025 30.27 854 25.22 23.4 74.2 29 4.4 39.9
20:10 1025 30.27 854 25.22 23.3 74 29 4.5 40
20:15 1025 30.27 854 25.22 23.2 73.8 29 4.3 39.7
20:20 1025 30.27 854 25.22 23.1 73.6 29 4.4 39.9
20:25 1025 30.27 854 25.22 22.9 73.2 29 4.2 39.6
20:30 1025 30.27 854 25.22 22.8 73.1 30 4.4 39.8
20:35 1025 30.27 854 25.22 22.8 73 30 4.4 39.9
20:40 1025 30.27 854 25.22 22.6 72.8 30 4.3 39.7
20:45 1025 30.27 854 25.22 22.5 72.5 30 4.3 39.8
20:50 1025 30.27 854 25.22 22.4 72.4 30 4.3 39.8
20:55 1025 30.27 854 25.22 22.3 72.1 31 4.4 39.9
21:00 1025 30.27 854 25.22 22 71.7 31 4.2 39.6
21:05 1025 30.27 854 25.22 21.9 71.5 31 4 39.2
21:10 1025 30.27 854 25.22 21.9 71.4 31 4.1 39.4
21:15 1025 30.27 854 25.22 21.8 71.3 31 4.1 39.3
21:20 1025 30.27 854 25.22 21.7 71.1 31 4.1 39.3
21:25 1025 30.27 854 25.22 21.7 71.1 31 4 39.2
21:30 1025 30.27 854 25.22 21.7 71 31 4.1 39.3
21:35 1025 30.27 854 25.22 21.5 70.7 32 4.1 39.4
21:40 1025 30.27 854 25.22 21.4 70.6 32 4.1 39.4
21:45 1025 30.27 855 25.25 21.4 70.4 31 3.9 39.1
21:50 1025 30.27 855 25.25 21.3 70.4 32 4.2 39.6
21:55 1025 30.27 855 25.25 21.2 70.2 32 4.2 39.6
22:00 1026 30.3 855 25.25 21.1 69.9 33 4.2 39.5
22:05 1026 30.3 855 25.25 21 69.8 33 4.1 39.4
22:10 1026 30.3 855 25.25 21 69.8 33 4.1 39.5
22:15 1026 30.3 855 25.25 21 69.8 36 5.4 41.8
22:20 1026 30.3 855 25.25 21 69.8 32 3.9 39.1
22:25 1026 30.3 855 25.25 21 69.8 32 3.9 39
22:30 1026 30.3 855 25.25 21 69.9 32 4 39.2
22:35 1026 30.3 855 25.25 21.1 69.9 32 3.9 39.1
22:40 1026 30.3 855 25.25 21 69.9 32 4 39.2
22:45 1026 30.3 855 25.25 20.9 69.7 33 4 39.3
22:50 1026 30.3 855 25.25 20.8 69.4 33 3.9 39.1
22:55 1026 30.3 855 25.25 20.7 69.2 33 4 39.2
23:00 1026 30.3 855 25.25 20.5 68.9 33 3.9 39.1
23:05 1026 30.3 855 25.25 20.4 68.6 34 4 39.1
23:10 1026 30.3 855 25.25 20.2 68.4 34 3.9 39.1
23:15 1026 30.3 855 25.25 20.1 68.2 34 3.8 38.9
23:20 1026 30.3 855 25.25 20 68 35 4 39.3
23:25 1026 30.3 855 25.25 19.8 67.7 35 4 39.2
23:30 1026 30.3 855 25.25 19.8 67.6 35 3.9 39
23:35 1026 30.3 855 25.25 19.9 67.7 35 4 39.2
23:40 1026 30.3 855 25.25 19.9 67.8 34 3.8 38.9
23:45 1026 30.3 855 25.25 19.9 67.8 34 3.8 38.9
23:50 1026 30.3 855 25.25 19.8 67.7 34 3.8 38.8
23:55 1026 30.3 855 25.25 19.9 67.8 34 3.7 38.7
24:00 1026 30.3 855 25.25 19.8 67.7 35 3.9 39